Lock Haven, PA

1:38 AM EST on December 08, 2016 (GMT -0500)
APRSWXNET | | Change Station

Elev 609 ft 41.12 °N, 77.51 °W | Updated 20 minutes ago

Overcast
Overcast
33 °F
Feels Like 33 °F
N
1
Wind Variable Wind from West
Gusts 3.0 mph

Today
High -- | Low -- °F
--% Chance of Precip.
Yesterday
High -- | Low -- °F
Precip. -- in
Pressure 30.02 in
Visibility 10.0 miles
Clouds Mostly Cloudy 8500 ft
Overcast 11000 ft
Windchill 33 °F
Dew Point 30 °F
Humidity 89%
Rainfall in
Snow Depth Not available.
7:22 AM 4:40 PM
First Quarter, 60% visible
METAR KIPT 080554Z AUTO 28006KT 10SM BKN085 OVC110 03/M03 A3001 RMK AO2 SLP165 T00331028 10033 20017 58005
Pressure 30.02 in
Visibility 10.0 miles
Clouds Mostly Cloudy 8500 ft
Overcast 11000 ft
Windchill 33 °F
Dew Point 30 °F
Humidity 89%
Rainfall in
Snow Depth Not available.
7:22 AM 4:40 PM
First Quarter, 60% visible
METAR KIPT 080554Z AUTO 28006KT 10SM BKN085 OVC110 03/M03 A3001 RMK AO2 SLP165 T00331028 10033 20017 58005

10-Day Weather Forecast

Almanac

Astronomy

Dec. 08, 2016 Rise Set
Actual Time
Civil Twilight
Nautical Twilight
Astronomical Twilight
Moon
Length of Visible Light
Length of Day
Tomorrow will be .
, % of the Moon is Illuminated

Today's Extremes

State Highs State Lows

Community

WunderPhotos

Upload Photos

1,956,259 photos uploaded!

WunderBlog® & News

Nearby

Air Quality

  Air Quality AQ Index Pollutant
Not available.

Snow Depth

Station Depth Elevation

Earthquake Activity

City Distance Mag. Time & Date
Minimum magnitude displayed is 2.5.

Coastal Water Temperatures

Place Temperature

Stations

Nearby Weather Stations

Station Location Temp. Windchill Dew Point Humidity Wind Precip. Elev Updated Type
                   

Watches & Warnings

There are currently no watches in effect.